Avalon — PBSF — position and weather

sailwx.info

Track history (hours):
 
Tides and Currents Weather Stations Pressure Air Temp Water Temp Dewpoint Dewpoint Depression Visibility Wind Speed Wind Dir Waves Ship Positions

Avalon

Last reported at 2017-Apr-23 21:29 UTC. Time now 2017-Apr-23 21:54 UTC.
Position N 50°19' W 000°27'.

Length 89 m; draft 5.2 m.

Type: Cargo ship. MMSI: 246578000.

Date/timePositionNaut miles runAvg speedWind from/ knotsBaromVisibWave heightAir tempDewpointWater temp
2017-Apr-23 21:29N 50°19' W 000°27'510.0
2017-Apr-23 21:00N 50°19' W 000°34'510.7
2017-Apr-23 20:30N 50°19' W 000°43'611.4
2017-Apr-23 20:00N 50°18' W 000°51'1312.1
2017-Apr-23 18:57N 50°17' W 001°11'712.5
2017-Apr-23 18:23N 50°16' W 001°22'3112.6
2017-Apr-23 15:58N 50°14' W 002°10'2610.2
2017-Apr-23 13:28N 50°10' W 002°50'4 9.1
2017-Apr-23 13:00N 50°09' W 002°56'4 9.0
2017-Apr-23 12:30N 50°08' W 003°03'4 8.9
2017-Apr-23 12:00N 50°07' W 003°09'4 8.8
2017-Apr-23 11:30N 50°06' W 003°16'4 8.8
2017-Apr-23 11:00N 50°05' W 003°23'4 8.7
2017-Apr-23 10:30N 50°04' W 003°30'4 8.6
2017-Apr-23 10:00N 50°04' W 003°36'4 8.5
2017-Apr-23 09:30N 50°03' W 003°43'5 8.7
2017-Apr-23 08:59N 50°02' W 003°50'5 8.8
2017-Apr-23 08:26N 50°01' W 003°57'4 8.9
2017-Apr-23 08:00N 49°60' W 004°03'5 9.0
2017-Apr-23 07:29N 49°59' W 004°10'4 9.1
2017-Apr-23 07:00N 49°58' W 004°16'5 9.2
2017-Apr-23 06:30N 49°57' W 004°23'5 9.3
2017-Apr-23 06:00N 49°56' W 004°31'5 9.6
2017-Apr-23 05:30N 49°55' W 004°38'5 9.7
2017-Apr-23 05:00N 49°54' W 004°45'5 9.9
2017-Apr-23 04:30N 49°52' W 004°53'610.1
2017-Apr-23 03:56N 49°51' W 005°01'610.3
2017-Apr-23 03:20N 49°49' W 005°11'167 8.9
2017-Apr-22 08:35N 50°59' W 009°09'1 9.0
2017-Apr-22 08:29N 50°60' W 009°10'4 9.3
2017-Apr-22 08:00N 51°03' W 009°15'5 9.3
2017-Apr-22 07:30N 51°06' W 009°21'5 9.4
2017-Apr-22 07:00N 51°08' W 009°27'5 9.4
2017-Apr-22 06:30N 51°11' W 009°33'5 9.5
2017-Apr-22 06:00N 51°14' W 009°39'5 9.6
2017-Apr-22 05:30N 51°17' W 009°45'5 9.6
2017-Apr-22 05:00N 51°20' W 009°51'5 9.8
2017-Apr-22 04:30N 51°23' W 009°58'510.0
2017-Apr-22 04:00N 51°26' W 010°04'510.2
2017-Apr-22 03:30N 51°29' W 010°10'510.4
2017-Apr-22 03:00N 51°32' W 010°17'42 8.4
2017-Apr-21 22:01N 52°13' W 010°32'2010.0
2017-Apr-21 19:59N 52°29' W 010°11'2810.2
2017-Apr-21 17:16N 52°51' W 009°42'310.3
2017-Apr-21 16:59N 52°53' W 009°39'610.3
2017-Apr-21 16:26N 52°57' W 009°33'410.3
2017-Apr-21 16:00N 53°01' W 009°28'610.5
2017-Apr-21 15:28N 53°06' W 009°23'510.2
2017-Apr-21 15:00N 53°09' W 009°18'  
2017-Apr-18 05:41N 53°09' W 009°18'2 8.1
2017-Apr-18 05:29N 53°08' W 009°19'6 8.4
2017-Apr-18 04:45N 53°03' W 009°25'2 8.9
2017-Apr-18 04:30N 53°01' W 009°27'4 9.1
2017-Apr-18 04:00N 52°58' W 009°32'5 9.0
2017-Apr-18 03:30N 52°55' W 009°37'32 8.7
2017-Apr-17 23:49N 52°31' W 010°13'6 8.6
2017-Apr-17 23:06N 52°26' W 010°19'1 8.4
2017-Apr-17 22:59N 52°25' W 010°20'14 8.5
2017-Apr-17 21:23N 52°14' W 010°33'4 8.6
2017-Apr-17 20:56N 52°11' W 010°36'39 8.1
2017-Apr-17 16:10N 51°33' W 010°22'2 9.5
2017-Apr-17 16:00N 51°32' W 010°20'5 9.4
2017-Apr-17 15:28N 51°30' W 010°12'4 9.7
2017-Apr-17 15:01N 51°28' W 010°06'1010.2
2017-Apr-17 14:00N 51°24' W 009°51'611.2
2017-Apr-17 13:30N 51°22' W 009°43'511.0
2017-Apr-17 13:01N 51°21' W 009°34'611.2
2017-Apr-17 12:30N 51°23' W 009°25'611.3
2017-Apr-17 12:00N 51°25' W 009°17'611.5
2017-Apr-17 11:30N 51°27' W 009°08'611.3
2017-Apr-17 11:00N 51°29' W 008°60'611.4
2017-Apr-17 10:30N 51°30' W 008°51'611.2
2017-Apr-17 10:00N 51°32' W 008°42'611.1
2017-Apr-17 09:30N 51°34' W 008°34'510.5
2017-Apr-17 09:00N 51°37' W 008°27'611.1
2017-Apr-17 08:30N 51°41' W 008°21'511.0
2017-Apr-17 08:00N 51°46' W 008°16'510.1
2017-Apr-17 07:31N 51°51' W 008°16'3 5.5
2017-Apr-17 07:00N 51°52' W 008°20'0 0.3
2017-Apr-17 06:30N 51°52' W 008°20'0 0.0
2017-Apr-17 06:00N 51°52' W 008°20'0 0.0
2017-Apr-17 05:30N 51°52' W 008°20'0 0.0
2017-Apr-17 05:00N 51°52' W 008°20'0 0.0
2017-Apr-17 04:30N 51°52' W 008°20'0 0.0
2017-Apr-17 04:00N 51°52' W 008°20'0 0.0
2017-Apr-17 03:30N 51°52' W 008°20'0 0.0
2017-Apr-17 03:00N 51°52' W 008°20'0 0.0
2017-Apr-17 02:30N 51°52' W 008°20'0 0.0
2017-Apr-17 02:00N 51°52' W 008°20'0 0.0
2017-Apr-17 01:30N 51°52' W 008°20'0 0.0
2017-Apr-17 01:00N 51°52' W 008°20'0 0.0
2017-Apr-17 00:30N 51°52' W 008°20'0 0.0
2017-Apr-17 00:00N 51°52' W 008°20'0 0.0
2017-Apr-16 23:30N 51°52' W 008°20'0 0.0
2017-Apr-16 23:00N 51°52' W 008°20'0 0.0
2017-Apr-16 22:30N 51°52' W 008°20'0 0.0
2017-Apr-16 22:00N 51°52' W 008°20'0 0.0
2017-Apr-16 21:30N 51°52' W 008°20'0 0.0
2017-Apr-16 21:00N 51°52' W 008°20'0 0.0
2017-Apr-16 20:30N 51°52' W 008°20'0 0.0
2017-Apr-16 20:00N 51°52' W 008°20'0 0.0
2017-Apr-16 19:30N 51°52' W 008°20'0 0.0
2017-Apr-16 19:00N 51°52' W 008°20'0 0.0
2017-Apr-16 18:30N 51°52' W 008°20'0 0.0
2017-Apr-16 18:00N 51°52' W 008°20'0 0.0
2017-Apr-16 17:30N 51°52' W 008°20'0 0.0
2017-Apr-16 17:00N 51°52' W 008°20'0 0.0
2017-Apr-16 16:30N 51°52' W 008°20'0 0.0
2017-Apr-16 16:00N 51°52' W 008°20'0 0.0
2017-Apr-16 15:30N 51°52' W 008°20'0 0.0
2017-Apr-16 15:00N 51°52' W 008°20'0 0.0
2017-Apr-16 14:00N 51°52' W 008°20'0 0.0
2017-Apr-16 13:30N 51°52' W 008°20'0 0.0
2017-Apr-16 13:00N 51°52' W 008°20'0 0.0
2017-Apr-16 12:30N 51°52' W 008°20'0 0.0
2017-Apr-16 12:00N 51°52' W 008°20'0 0.0
2017-Apr-16 11:30N 51°52' W 008°20'0 0.0
2017-Apr-16 11:00N 51°52' W 008°20'0 0.0
2017-Apr-16 10:30N 51°52' W 008°20'0 0.0
2017-Apr-16 10:00N 51°52' W 008°20'0 0.0
2017-Apr-16 09:28N 51°52' W 008°20'0 0.0
2017-Apr-16 09:00N 51°52' W 008°20'0 0.0
2017-Apr-16 08:30N 51°52' W 008°20'0 0.0
2017-Apr-16 08:00N 51°52' W 008°20'0 0.0
2017-Apr-16 07:31N 51°52' W 008°20'0 0.0
2017-Apr-16 07:00N 51°52' W 008°20'0 0.0
2017-Apr-16 06:30N 51°52' W 008°20'0 0.0
2017-Apr-16 06:00N 51°52' W 008°20'0 0.0
2017-Apr-16 05:30N 51°52' W 008°20'0 0.0
2017-Apr-16 05:00N 51°52' W 008°20'0 0.0
2017-Apr-16 04:30N 51°52' W 008°20'0 0.0
2017-Apr-16 04:00N 51°52' W 008°20'0 0.0
2017-Apr-16 03:30N 51°52' W 008°20'0 0.0
2017-Apr-16 03:00N 51°52' W 008°20'0 0.0
2017-Apr-16 02:30N 51°52' W 008°20'0 0.0
2017-Apr-16 02:00N 51°52' W 008°20'0 0.0
2017-Apr-16 01:30N 51°52' W 008°20'0 0.0
2017-Apr-16 01:00N 51°52' W 008°20'0 0.0
2017-Apr-16 00:30N 51°52' W 008°20'0 0.0
2017-Apr-16 00:00N 51°52' W 008°20'0 0.0
2017-Apr-15 23:30N 51°52' W 008°20'0 0.0
2017-Apr-15 23:00N 51°52' W 008°20'0 0.0
2017-Apr-15 22:30N 51°52' W 008°20'0 0.0
2017-Apr-15 22:00N 51°52' W 008°20'0 0.0
2017-Apr-15 21:30N 51°52' W 008°20'0 0.0
2017-Apr-15 21:00N 51°52' W 008°20'0 0.0
2017-Apr-15 20:30N 51°52' W 008°20'0 0.0
2017-Apr-15 20:00N 51°52' W 008°20'0 0.0
2017-Apr-15 19:30N 51°52' W 008°20'0 0.0
2017-Apr-15 19:00N 51°52' W 008°20'0 0.0
2017-Apr-15 18:30N 51°52' W 008°20'0 0.0
2017-Apr-15 18:00N 51°52' W 008°20'0 0.0
2017-Apr-15 17:30N 51°52' W 008°20'0 0.0
2017-Apr-15 17:00N 51°52' W 008°20'0 0.0
2017-Apr-15 16:30N 51°52' W 008°20'0 0.0
2017-Apr-15 16:00N 51°52' W 008°20'0 0.0
2017-Apr-15 15:30N 51°52' W 008°20'0 0.0
2017-Apr-15 15:00N 51°52' W 008°20'0 0.0
2017-Apr-15 14:00N 51°52' W 008°20'0 0.0
2017-Apr-15 13:30N 51°52' W 008°20'0 0.0
2017-Apr-15 13:00N 51°52' W 008°20'0 0.0
2017-Apr-15 12:30N 51°52' W 008°20'0 0.0
2017-Apr-15 12:00N 51°52' W 008°20'0 0.0
2017-Apr-15 11:30N 51°52' W 008°20'0 0.0
2017-Apr-15 11:00N 51°52' W 008°20'0 0.0
2017-Apr-15 10:30N 51°52' W 008°20'0 0.0
2017-Apr-15 10:00N 51°52' W 008°20'0 0.0
2017-Apr-15 09:30N 51°52' W 008°20'0 0.0
2017-Apr-15 08:57N 51°52' W 008°20'0 0.0
2017-Apr-15 08:30N 51°52' W 008°20'0 0.0
2017-Apr-15 08:00N 51°52' W 008°20'0 0.0
2017-Apr-15 07:30N 51°52' W 008°20'0 0.0
2017-Apr-15 07:00N 51°52' W 008°20'0 0.0
2017-Apr-15 06:30N 51°52' W 008°20'0 0.0
2017-Apr-15 06:00N 51°52' W 008°20'0 0.0
2017-Apr-15 05:30N 51°52' W 008°20'0 0.0
2017-Apr-15 05:00N 51°52' W 008°20'0 0.0
2017-Apr-15 04:30N 51°52' W 008°20'0 0.0
2017-Apr-15 04:00N 51°52' W 008°20'0 0.0
2017-Apr-15 03:30N 51°52' W 008°20'0 0.0
2017-Apr-15 03:00N 51°52' W 008°20'0 0.0
2017-Apr-15 02:30N 51°52' W 008°20'0 0.0
2017-Apr-15 02:00N 51°52' W 008°20'0 0.0
2017-Apr-15 01:30N 51°52' W 008°20'0 0.0
2017-Apr-15 01:00N 51°52' W 008°20'0 0.0
2017-Apr-15 00:30N 51°52' W 008°20'0 0.0
2017-Apr-15 00:00N 51°52' W 008°20'0 0.0
2017-Apr-14 23:30N 51°52' W 008°20'0 0.0
2017-Apr-14 23:00N 51°52' W 008°20'0 0.0
2017-Apr-14 22:30N 51°52' W 008°20'0 0.0
2017-Apr-14 21:57N 51°52' W 008°20'0 0.0
2017-Apr-14 21:30N 51°52' W 008°20'0 0.0
2017-Apr-14 20:54N 51°52' W 008°20'0 0.0
2017-Apr-14 20:30N 51°52' W 008°20'0 0.0
2017-Apr-14 20:00N 51°52' W 008°20'0 0.0
2017-Apr-14 19:30N 51°52' W 008°20'0 0.0
2017-Apr-14 19:00N 51°52' W 008°20'0 0.0
2017-Apr-14 18:30N 51°52' W 008°20'0 0.0
2017-Apr-14 18:00N 51°52' W 008°20'0 0.0
2017-Apr-14 17:30N 51°52' W 008°20'0 0.0
2017-Apr-14 17:00N 51°52' W 008°20'0 0.0
2017-Apr-14 16:30N 51°52' W 008°20'0 0.0
2017-Apr-14 16:00N 51°52' W 008°20'0 0.0
2017-Apr-14 15:30N 51°52' W 008°20'0 0.0
2017-Apr-14 15:00N 51°52' W 008°20'0 0.0
2017-Apr-14 13:57N 51°52' W 008°20'0 0.0
2017-Apr-14 13:30N 51°52' W 008°20'0 0.0
2017-Apr-14 13:00N 51°52' W 008°20'0 0.0
2017-Apr-14 12:30N 51°52' W 008°20'0 0.0
2017-Apr-14 12:00N 51°52' W 008°20'0 0.0
2017-Apr-14 11:30N 51°52' W 008°20'0 0.0
2017-Apr-14 11:00N 51°52' W 008°20'0 0.0
2017-Apr-14 10:30N 51°52' W 008°20'0 0.0
2017-Apr-14 10:00N 51°52' W 008°20'0 0.0
2017-Apr-14 09:27N 51°52' W 008°20'0 0.0
2017-Apr-14 09:00N 51°52' W 008°20'0 0.0
2017-Apr-14 08:30N 51°52' W 008°20'0 0.0
2017-Apr-14 07:57N 51°52' W 008°20'0 0.0
2017-Apr-14 07:30N 51°52' W 008°20'0 0.0
2017-Apr-14 07:00N 51°52' W 008°20'0 0.0
2017-Apr-14 06:30N 51°52' W 008°20'0 0.0
2017-Apr-14 06:00N 51°52' W 008°20'0 0.0
2017-Apr-14 05:30N 51°52' W 008°20'0 0.0
2017-Apr-14 05:00N 51°52' W 008°20'0 0.0
2017-Apr-14 04:30N 51°52' W 008°20'0 0.0
2017-Apr-14 04:00N 51°52' W 008°20'0 0.0
2017-Apr-14 03:30N 51°52' W 008°20'0 0.0
2017-Apr-14 03:00N 51°52' W 008°20'0 0.0
2017-Apr-14 02:30N 51°52' W 008°20'0 0.0
2017-Apr-14 02:00N 51°52' W 008°20'0 0.0
2017-Apr-14 01:30N 51°52' W 008°20'0 0.0
2017-Apr-14 01:00N 51°52' W 008°20'0 0.0
2017-Apr-14 00:30N 51°52' W 008°20'0 0.0
2017-Apr-14 00:00N 51°52' W 008°20'0 0.0
2017-Apr-13 23:30N 51°52' W 008°20'0 0.0
2017-Apr-13 23:00N 51°52' W 008°20'0 0.0
2017-Apr-13 22:30N 51°52' W 008°20'0 0.0
2017-Apr-13 22:00N 51°52' W 008°20'0 0.0
2017-Apr-13 21:30N 51°52' W 008°20'  
Track history (hours):
 
Tides and Currents Weather Stations Pressure Air Temp Water Temp Dewpoint Dewpoint Depression Visibility Wind Speed Wind Dir Waves Ship Positions

Avalon

Last reported at 2017-Apr-23 21:29 UTC. Time now 2017-Apr-23 21:54 UTC.
Position N 50°19' W 000°27'.

Length 89 m; draft 5.2 m.

Type: Cargo ship. MMSI: 246578000.

Date/timePositionNaut miles runAvg speedWind from/ knotsBaromVisibWave heightAir tempDewpointWater temp
2017-Apr-23 21:29N 50°19' W 000°27'510.0
2017-Apr-23 21:00N 50°19' W 000°34'510.7
2017-Apr-23 20:30N 50°19' W 000°43'611.4
2017-Apr-23 20:00N 50°18' W 000°51'1312.1
2017-Apr-23 18:57N 50°17' W 001°11'712.5
2017-Apr-23 18:23N 50°16' W 001°22'3112.6
2017-Apr-23 15:58N 50°14' W 002°10'2610.2
2017-Apr-23 13:28N 50°10' W 002°50'4 9.1
2017-Apr-23 13:00N 50°09' W 002°56'4 9.0
2017-Apr-23 12:30N 50°08' W 003°03'4 8.9
2017-Apr-23 12:00N 50°07' W 003°09'4 8.8
2017-Apr-23 11:30N 50°06' W 003°16'4 8.8
2017-Apr-23 11:00N 50°05' W 003°23'4 8.7
2017-Apr-23 10:30N 50°04' W 003°30'4 8.6
2017-Apr-23 10:00N 50°04' W 003°36'4 8.5
2017-Apr-23 09:30N 50°03' W 003°43'5 8.7
2017-Apr-23 08:59N 50°02' W 003°50'5 8.8
2017-Apr-23 08:26N 50°01' W 003°57'4 8.9
2017-Apr-23 08:00N 49°60' W 004°03'5 9.0
2017-Apr-23 07:29N 49°59' W 004°10'4 9.1
2017-Apr-23 07:00N 49°58' W 004°16'5 9.2
2017-Apr-23 06:30N 49°57' W 004°23'5 9.3
2017-Apr-23 06:00N 49°56' W 004°31'5 9.6
2017-Apr-23 05:30N 49°55' W 004°38'5 9.7
2017-Apr-23 05:00N 49°54' W 004°45'5 9.9
2017-Apr-23 04:30N 49°52' W 004°53'610.1
2017-Apr-23 03:56N 49°51' W 005°01'610.3
2017-Apr-23 03:20N 49°49' W 005°11'167 8.9
2017-Apr-22 08:35N 50°59' W 009°09'1 9.0
2017-Apr-22 08:29N 50°60' W 009°10'4 9.3
2017-Apr-22 08:00N 51°03' W 009°15'5 9.3
2017-Apr-22 07:30N 51°06' W 009°21'5 9.4
2017-Apr-22 07:00N 51°08' W 009°27'5 9.4
2017-Apr-22 06:30N 51°11' W 009°33'5 9.5
2017-Apr-22 06:00N 51°14' W 009°39'5 9.6
2017-Apr-22 05:30N 51°17' W 009°45'5 9.6
2017-Apr-22 05:00N 51°20' W 009°51'5 9.8
2017-Apr-22 04:30N 51°23' W 009°58'510.0
2017-Apr-22 04:00N 51°26' W 010°04'510.2
2017-Apr-22 03:30N 51°29' W 010°10'510.4
2017-Apr-22 03:00N 51°32' W 010°17'42 8.4
2017-Apr-21 22:01N 52°13' W 010°32'2010.0
2017-Apr-21 19:59N 52°29' W 010°11'2810.2
2017-Apr-21 17:16N 52°51' W 009°42'310.3
2017-Apr-21 16:59N 52°53' W 009°39'610.3
2017-Apr-21 16:26N 52°57' W 009°33'410.3
2017-Apr-21 16:00N 53°01' W 009°28'610.5
2017-Apr-21 15:28N 53°06' W 009°23'510.2
2017-Apr-21 15:00N 53°09' W 009°18'  
2017-Apr-18 05:41N 53°09' W 009°18'2 8.1
2017-Apr-18 05:29N 53°08' W 009°19'6 8.4
2017-Apr-18 04:45N 53°03' W 009°25'2 8.9
2017-Apr-18 04:30N 53°01' W 009°27'4 9.1
2017-Apr-18 04:00N 52°58' W 009°32'5 9.0
2017-Apr-18 03:30N 52°55' W 009°37'32 8.7
2017-Apr-17 23:49N 52°31' W 010°13'6 8.6
2017-Apr-17 23:06N 52°26' W 010°19'1 8.4
2017-Apr-17 22:59N 52°25' W 010°20'14 8.5
2017-Apr-17 21:23N 52°14' W 010°33'4 8.6
2017-Apr-17 20:56N 52°11' W 010°36'39 8.1
2017-Apr-17 16:10N 51°33' W 010°22'2 9.5
2017-Apr-17 16:00N 51°32' W 010°20'5 9.4
2017-Apr-17 15:28N 51°30' W 010°12'4 9.7
2017-Apr-17 15:01N 51°28' W 010°06'1010.2
2017-Apr-17 14:00N 51°24' W 009°51'611.2
2017-Apr-17 13:30N 51°22' W 009°43'511.0
2017-Apr-17 13:01N 51°21' W 009°34'611.2
2017-Apr-17 12:30N 51°23' W 009°25'611.3
2017-Apr-17 12:00N 51°25' W 009°17'611.5
2017-Apr-17 11:30N 51°27' W 009°08'611.3
2017-Apr-17 11:00N 51°29' W 008°60'611.4
2017-Apr-17 10:30N 51°30' W 008°51'611.2
2017-Apr-17 10:00N 51°32' W 008°42'611.1
2017-Apr-17 09:30N 51°34' W 008°34'510.5
2017-Apr-17 09:00N 51°37' W 008°27'611.1
2017-Apr-17 08:30N 51°41' W 008°21'511.0
2017-Apr-17 08:00N 51°46' W 008°16'510.1
2017-Apr-17 07:31N 51°51' W 008°16'3 5.5
2017-Apr-17 07:00N 51°52' W 008°20'0 0.3
2017-Apr-17 06:30N 51°52' W 008°20'0 0.0
2017-Apr-17 06:00N 51°52' W 008°20'0 0.0
2017-Apr-17 05:30N 51°52' W 008°20'0 0.0
2017-Apr-17 05:00N 51°52' W 008°20'0 0.0
2017-Apr-17 04:30N 51°52' W 008°20'0 0.0
2017-Apr-17 04:00N 51°52' W 008°20'0 0.0
2017-Apr-17 03:30N 51°52' W 008°20'0 0.0
2017-Apr-17 03:00N 51°52' W 008°20'0 0.0
2017-Apr-17 02:30N 51°52' W 008°20'0 0.0
2017-Apr-17 02:00N 51°52' W 008°20'0 0.0
2017-Apr-17 01:30N 51°52' W 008°20'0 0.0
2017-Apr-17 01:00N 51°52' W 008°20'0 0.0
2017-Apr-17 00:30N 51°52' W 008°20'0 0.0
2017-Apr-17 00:00N 51°52' W 008°20'0 0.0
2017-Apr-16 23:30N 51°52' W 008°20'0 0.0
2017-Apr-16 23:00N 51°52' W 008°20'0 0.0
2017-Apr-16 22:30N 51°52' W 008°20'0 0.0
2017-Apr-16 22:00N 51°52' W 008°20'0 0.0
2017-Apr-16 21:30N 51°52' W 008°20'0 0.0
2017-Apr-16 21:00N 51°52' W 008°20'0 0.0
2017-Apr-16 20:30N 51°52' W 008°20'0 0.0
2017-Apr-16 20:00N 51°52' W 008°20'0 0.0
2017-Apr-16 19:30N 51°52' W 008°20'0 0.0
2017-Apr-16 19:00N 51°52' W 008°20'0 0.0
2017-Apr-16 18:30N 51°52' W 008°20'0 0.0
2017-Apr-16 18:00N 51°52' W 008°20'0 0.0
2017-Apr-16 17:30N 51°52' W 008°20'0 0.0
2017-Apr-16 17:00N 51°52' W 008°20'0 0.0
2017-Apr-16 16:30N 51°52' W 008°20'0 0.0
2017-Apr-16 16:00N 51°52' W 008°20'0 0.0
2017-Apr-16 15:30N 51°52' W 008°20'0 0.0
2017-Apr-16 15:00N 51°52' W 008°20'0 0.0
2017-Apr-16 14:00N 51°52' W 008°20'0 0.0
2017-Apr-16 13:30N 51°52' W 008°20'0 0.0
2017-Apr-16 13:00N 51°52' W 008°20'0 0.0
2017-Apr-16 12:30N 51°52' W 008°20'0 0.0
2017-Apr-16 12:00N 51°52' W 008°20'0 0.0
2017-Apr-16 11:30N 51°52' W 008°20'0 0.0
2017-Apr-16 11:00N 51°52' W 008°20'0 0.0
2017-Apr-16 10:30N 51°52' W 008°20'0 0.0
2017-Apr-16 10:00N 51°52' W 008°20'0 0.0
2017-Apr-16 09:28N 51°52' W 008°20'0 0.0
2017-Apr-16 09:00N 51°52' W 008°20'0 0.0
2017-Apr-16 08:30N 51°52' W 008°20'0 0.0
2017-Apr-16 08:00N 51°52' W 008°20'0 0.0
2017-Apr-16 07:31N 51°52' W 008°20'0 0.0
2017-Apr-16 07:00N 51°52' W 008°20'0 0.0
2017-Apr-16 06:30N 51°52' W 008°20'0 0.0
2017-Apr-16 06:00N 51°52' W 008°20'0 0.0
2017-Apr-16 05:30N 51°52' W 008°20'0 0.0
2017-Apr-16 05:00N 51°52' W 008°20'0 0.0
2017-Apr-16 04:30N 51°52' W 008°20'0 0.0
2017-Apr-16 04:00N 51°52' W 008°20'0 0.0
2017-Apr-16 03:30N 51°52' W 008°20'0 0.0
2017-Apr-16 03:00N 51°52' W 008°20'0 0.0
2017-Apr-16 02:30N 51°52' W 008°20'0 0.0
2017-Apr-16 02:00N 51°52' W 008°20'0 0.0
2017-Apr-16 01:30N 51°52' W 008°20'0 0.0
2017-Apr-16 01:00N 51°52' W 008°20'0 0.0
2017-Apr-16 00:30N 51°52' W 008°20'0 0.0
2017-Apr-16 00:00N 51°52' W 008°20'0 0.0
2017-Apr-15 23:30N 51°52' W 008°20'0 0.0
2017-Apr-15 23:00N 51°52' W 008°20'0 0.0
2017-Apr-15 22:30N 51°52' W 008°20'0 0.0
2017-Apr-15 22:00N 51°52' W 008°20'0 0.0
2017-Apr-15 21:30N 51°52' W 008°20'0 0.0
2017-Apr-15 21:00N 51°52' W 008°20'0 0.0
2017-Apr-15 20:30N 51°52' W 008°20'0 0.0
2017-Apr-15 20:00N 51°52' W 008°20'0 0.0
2017-Apr-15 19:30N 51°52' W 008°20'0 0.0
2017-Apr-15 19:00N 51°52' W 008°20'0 0.0
2017-Apr-15 18:30N 51°52' W 008°20'0 0.0
2017-Apr-15 18:00N 51°52' W 008°20'0 0.0
2017-Apr-15 17:30N 51°52' W 008°20'0 0.0
2017-Apr-15 17:00N 51°52' W 008°20'0 0.0
2017-Apr-15 16:30N 51°52' W 008°20'0 0.0
2017-Apr-15 16:00N 51°52' W 008°20'0 0.0
2017-Apr-15 15:30N 51°52' W 008°20'0 0.0
2017-Apr-15 15:00N 51°52' W 008°20'0 0.0
2017-Apr-15 14:00N 51°52' W 008°20'0 0.0
2017-Apr-15 13:30N 51°52' W 008°20'0 0.0
2017-Apr-15 13:00N 51°52' W 008°20'0 0.0
2017-Apr-15 12:30N 51°52' W 008°20'0 0.0
2017-Apr-15 12:00N 51°52' W 008°20'0 0.0
2017-Apr-15 11:30N 51°52' W 008°20'0 0.0
2017-Apr-15 11:00N 51°52' W 008°20'0 0.0
2017-Apr-15 10:30N 51°52' W 008°20'0 0.0
2017-Apr-15 10:00N 51°52' W 008°20'0 0.0
2017-Apr-15 09:30N 51°52' W 008°20'0 0.0
2017-Apr-15 08:57N 51°52' W 008°20'0 0.0
2017-Apr-15 08:30N 51°52' W 008°20'0 0.0
2017-Apr-15 08:00N 51°52' W 008°20'0 0.0
2017-Apr-15 07:30N 51°52' W 008°20'0 0.0
2017-Apr-15 07:00N 51°52' W 008°20'0 0.0
2017-Apr-15 06:30N 51°52' W 008°20'0 0.0
2017-Apr-15 06:00N 51°52' W 008°20'0 0.0
2017-Apr-15 05:30N 51°52' W 008°20'0 0.0
2017-Apr-15 05:00N 51°52' W 008°20'0 0.0
2017-Apr-15 04:30N 51°52' W 008°20'0 0.0
2017-Apr-15 04:00N 51°52' W 008°20'0 0.0
2017-Apr-15 03:30N 51°52' W 008°20'0 0.0
2017-Apr-15 03:00N 51°52' W 008°20'0 0.0
2017-Apr-15 02:30N 51°52' W 008°20'0 0.0
2017-Apr-15 02:00N 51°52' W 008°20'0 0.0
2017-Apr-15 01:30N 51°52' W 008°20'0 0.0
2017-Apr-15 01:00N 51°52' W 008°20'0 0.0
2017-Apr-15 00:30N 51°52' W 008°20'0 0.0
2017-Apr-15 00:00N 51°52' W 008°20'0 0.0
2017-Apr-14 23:30N 51°52' W 008°20'0 0.0
2017-Apr-14 23:00N 51°52' W 008°20'0 0.0
2017-Apr-14 22:30N 51°52' W 008°20'0 0.0
2017-Apr-14 21:57N 51°52' W 008°20'0 0.0
2017-Apr-14 21:30N 51°52' W 008°20'0 0.0
2017-Apr-14 20:54N 51°52' W 008°20'0 0.0
2017-Apr-14 20:30N 51°52' W 008°20'0 0.0
2017-Apr-14 20:00N 51°52' W 008°20'0 0.0
2017-Apr-14 19:30N 51°52' W 008°20'0 0.0
2017-Apr-14 19:00N 51°52' W 008°20'0 0.0
2017-Apr-14 18:30N 51°52' W 008°20'0 0.0
2017-Apr-14 18:00N 51°52' W 008°20'0 0.0
2017-Apr-14 17:30N 51°52' W 008°20'0 0.0
2017-Apr-14 17:00N 51°52' W 008°20'0 0.0
2017-Apr-14 16:30N 51°52' W 008°20'0 0.0
2017-Apr-14 16:00N 51°52' W 008°20'0 0.0
2017-Apr-14 15:30N 51°52' W 008°20'0 0.0
2017-Apr-14 15:00N 51°52' W 008°20'0 0.0
2017-Apr-14 13:57N 51°52' W 008°20'0 0.0
2017-Apr-14 13:30N 51°52' W 008°20'0 0.0
2017-Apr-14 13:00N 51°52' W 008°20'0 0.0
2017-Apr-14 12:30N 51°52' W 008°20'0 0.0
2017-Apr-14 12:00N 51°52' W 008°20'0 0.0
2017-Apr-14 11:30N 51°52' W 008°20'0 0.0
2017-Apr-14 11:00N 51°52' W 008°20'0 0.0
2017-Apr-14 10:30N 51°52' W 008°20'0 0.0
2017-Apr-14 10:00N 51°52' W 008°20'0 0.0
2017-Apr-14 09:27N 51°52' W 008°20'0 0.0
2017-Apr-14 09:00N 51°52' W 008°20'0 0.0
2017-Apr-14 08:30N 51°52' W 008°20'0 0.0
2017-Apr-14 07:57N 51°52' W 008°20'0 0.0
2017-Apr-14 07:30N 51°52' W 008°20'0 0.0
2017-Apr-14 07:00N 51°52' W 008°20'0 0.0
2017-Apr-14 06:30N 51°52' W 008°20'0 0.0
2017-Apr-14 06:00N 51°52' W 008°20'0 0.0
2017-Apr-14 05:30N 51°52' W 008°20'0 0.0
2017-Apr-14 05:00N 51°52' W 008°20'0 0.0
2017-Apr-14 04:30N 51°52' W 008°20'0 0.0
2017-Apr-14 04:00N 51°52' W 008°20'0 0.0
2017-Apr-14 03:30N 51°52' W 008°20'0 0.0
2017-Apr-14 03:00N 51°52' W 008°20'0 0.0
2017-Apr-14 02:30N 51°52' W 008°20'0 0.0
2017-Apr-14 02:00N 51°52' W 008°20'0 0.0
2017-Apr-14 01:30N 51°52' W 008°20'0 0.0
2017-Apr-14 01:00N 51°52' W 008°20'0 0.0
2017-Apr-14 00:30N 51°52' W 008°20'0 0.0
2017-Apr-14 00:00N 51°52' W 008°20'0 0.0
2017-Apr-13 23:30N 51°52' W 008°20'0 0.0
2017-Apr-13 23:00N 51°52' W 008°20'0 0.0
2017-Apr-13 22:30N 51°52' W 008°20'0 0.0
2017-Apr-13 22:00N 51°52' W 008°20'0 0.0
2017-Apr-13 21:30N 51°52' W 008°20'  

Dump ship's entire track history